sensor_id;sensor_type;location;lat;lon;timestamp;P1;durP1;ratioP1;P2;durP2;ratioP2
45382;SDS011;42455;51.660;5.824;2023-12-20T00:01:29;11.0;;;6.0;;
45382;SDS011;42455;51.660;5.824;2023-12-20T00:06:35;9.5;;;5.0;;
45382;SDS011;42455;51.660;5.824;2023-12-20T00:11:41;11.5;;;4.0;;
45382;SDS011;42455;51.660;5.824;2023-12-20T00:16:47;8.0;;;4.0;;
45382;SDS011;42455;51.660;5.824;2023-12-20T00:21:53;8.0;;;4.0;;
45382;SDS011;42455;51.660;5.824;2023-12-20T00:27:00;9.0;;;4.0;;
45382;SDS011;42455;51.660;5.824;2023-12-20T00:32:06;8.0;;;4.0;;
45382;SDS011;42455;51.660;5.824;2023-12-20T00:37:12;9.0;;;4.0;;
45382;SDS011;42455;51.660;5.824;2023-12-20T00:42:18;10.0;;;4.0;;
45382;SDS011;42455;51.660;5.824;2023-12-20T00:47:24;10.0;;;4.0;;
45382;SDS011;42455;51.660;5.824;2023-12-20T00:52:31;8.0;;;4.0;;
45382;SDS011;42455;51.660;5.824;2023-12-20T00:57:37;10.0;;;5.0;;
45382;SDS011;42455;51.660;5.824;2023-12-20T01:02:43;11.0;;;5.0;;
45382;SDS011;42455;51.660;5.824;2023-12-20T01:07:49;11.0;;;5.0;;
45382;SDS011;42455;51.660;5.824;2023-12-20T01:12:56;9.0;;;6.0;;
45382;SDS011;42455;51.660;5.824;2023-12-20T01:18:02;11.0;;;5.0;;
45382;SDS011;42455;51.660;5.824;2023-12-20T01:23:08;11.0;;;5.0;;
45382;SDS011;42455;51.660;5.824;2023-12-20T01:28:14;9.0;;;4.0;;
45382;SDS011;42455;51.660;5.824;2023-12-20T01:33:20;9.0;;;4.0;;
45382;SDS011;42455;51.660;5.824;2023-12-20T01:38:27;8.0;;;4.0;;
45382;SDS011;42455;51.660;5.824;2023-12-20T01:43:33;10.0;;;3.0;;
45382;SDS011;42455;51.660;5.824;2023-12-20T01:48:39;9.5;;;3.0;;
45382;SDS011;42455;51.660;5.824;2023-12-20T01:53:45;10.0;;;3.0;;
45382;SDS011;42455;51.660;5.824;2023-12-20T01:58:51;8.0;;;3.0;;
45382;SDS011;42455;51.660;5.824;2023-12-20T02:03:58;9.5;;;3.0;;
45382;SDS011;42455;51.660;5.824;2023-12-20T02:09:04;10.0;;;3.0;;
45382;SDS011;42455;51.660;5.824;2023-12-20T02:14:10;8.5;;;3.0;;
45382;SDS011;42455;51.660;5.824;2023-12-20T02:19:17;12.0;;;3.0;;
45382;SDS011;42455;51.660;5.824;2023-12-20T02:24:23;13.0;;;3.0;;
45382;SDS011;42455;51.660;5.824;2023-12-20T02:29:29;14.0;;;3.0;;
45382;SDS011;42455;51.660;5.824;2023-12-20T02:34:35;9.0;;;2.0;;
45382;SDS011;42455;51.660;5.824;2023-12-20T02:39:41;9.0;;;2.0;;
45382;SDS011;42455;51.660;5.824;2023-12-20T02:44:47;8.0;;;3.0;;
45382;SDS011;42455;51.660;5.824;2023-12-20T02:49:53;9.0;;;3.0;;
45382;SDS011;42455;51.660;5.824;2023-12-20T02:55:00;12.5;;;3.0;;
45382;SDS011;42455;51.660;5.824;2023-12-20T03:00:06;8.0;;;3.0;;
45382;SDS011;42455;51.660;5.824;2023-12-20T03:05:12;10.0;;;3.0;;
45382;SDS011;42455;51.660;5.824;2023-12-20T03:10:18;10.5;;;3.0;;
45382;SDS011;42455;51.660;5.824;2023-12-20T03:15:24;11.0;;;3.0;;
45382;SDS011;42455;51.660;5.824;2023-12-20T03:20:31;11.0;;;3.0;;
45382;SDS011;42455;51.660;5.824;2023-12-20T03:25:37;9.0;;;3.0;;
45382;SDS011;42455;51.660;5.824;2023-12-20T03:30:43;15.0;;;4.0;;
45382;SDS011;42455;51.660;5.824;2023-12-20T03:35:49;9.0;;;3.0;;
45382;SDS011;42455;51.660;5.824;2023-12-20T03:40:56;11.0;;;3.0;;
45382;SDS011;42455;51.660;5.824;2023-12-20T03:46:02;14.0;;;3.0;;
45382;SDS011;42455;51.660;5.824;2023-12-20T03:51:08;14.0;;;4.0;;
45382;SDS011;42455;51.660;5.824;2023-12-20T03:56:14;12.0;;;3.0;;
45382;SDS011;42455;51.660;5.824;2023-12-20T04:01:20;12.0;;;4.0;;
45382;SDS011;42455;51.660;5.824;2023-12-20T04:06:27;11.5;;;4.0;;
45382;SDS011;42455;51.660;5.824;2023-12-20T04:11:33;14.0;;;4.0;;
45382;SDS011;42455;51.660;5.824;2023-12-20T04:16:39;15.0;;;4.0;;
45382;SDS011;42455;51.660;5.824;2023-12-20T04:21:45;11.0;;;3.0;;
45382;SDS011;42455;51.660;5.824;2023-12-20T04:26:52;13.5;;;4.0;;
45382;SDS011;42455;51.660;5.824;2023-12-20T04:31:58;14.0;;;4.0;;
45382;SDS011;42455;51.660;5.824;2023-12-20T04:37:03;12.0;;;4.0;;
45382;SDS011;42455;51.660;5.824;2023-12-20T04:42:09;12.0;;;4.0;;
45382;SDS011;42455;51.660;5.824;2023-12-20T04:47:15;12.0;;;4.0;;
45382;SDS011;42455;51.660;5.824;2023-12-20T04:52:21;16.0;;;4.0;;
45382;SDS011;42455;51.660;5.824;2023-12-20T04:57:28;14.0;;;4.0;;
45382;SDS011;42455;51.660;5.824;2023-12-20T05:02:33;11.5;;;4.0;;
45382;SDS011;42455;51.660;5.824;2023-12-20T05:07:39;13.0;;;4.0;;
45382;SDS011;42455;51.660;5.824;2023-12-20T05:12:45;14.0;;;3.0;;
45382;SDS011;42455;51.660;5.824;2023-12-20T05:17:52;12.0;;;4.0;;
45382;SDS011;42455;51.660;5.824;2023-12-20T05:22:58;15.5;;;4.0;;
45382;SDS011;42455;51.660;5.824;2023-12-20T05:28:04;15.0;;;4.0;;
45382;SDS011;42455;51.660;5.824;2023-12-20T05:33:10;13.5;;;4.0;;
45382;SDS011;42455;51.660;5.824;2023-12-20T05:38:16;10.0;;;4.0;;
45382;SDS011;42455;51.660;5.824;2023-12-20T05:43:23;12.0;;;4.0;;
45382;SDS011;42455;51.660;5.824;2023-12-20T05:48:29;13.0;;;4.0;;
45382;SDS011;42455;51.660;5.824;2023-12-20T05:53:35;13.0;;;4.0;;
45382;SDS011;42455;51.660;5.824;2023-12-20T05:58:41;16.0;;;4.0;;
45382;SDS011;42455;51.660;5.824;2023-12-20T06:03:47;12.0;;;4.0;;
45382;SDS011;42455;51.660;5.824;2023-12-20T06:08:54;13.0;;;4.0;;
45382;SDS011;42455;51.660;5.824;2023-12-20T06:14:00;13.0;;;4.0;;
45382;SDS011;42455;51.660;5.824;2023-12-20T06:19:06;12.0;;;3.0;;
45382;SDS011;42455;51.660;5.824;2023-12-20T06:24:12;11.5;;;3.0;;
45382;SDS011;42455;51.660;5.824;2023-12-20T06:29:19;16.0;;;4.0;;
45382;SDS011;42455;51.660;5.824;2023-12-20T06:34:25;14.5;;;4.0;;
45382;SDS011;42455;51.660;5.824;2023-12-20T06:39:31;15.0;;;3.0;;
45382;SDS011;42455;51.660;5.824;2023-12-20T06:44:37;13.0;;;3.0;;
45382;SDS011;42455;51.660;5.824;2023-12-20T06:54:50;11.0;;;3.0;;
45382;SDS011;42455;51.660;5.824;2023-12-20T06:59:56;11.5;;;4.0;;
45382;SDS011;42455;51.660;5.824;2023-12-20T07:05:02;13.0;;;4.0;;
45382;SDS011;42455;51.660;5.824;2023-12-20T07:10:08;13.0;;;4.0;;
45382;SDS011;42455;51.660;5.824;2023-12-20T07:15:14;14.0;;;4.0;;
45382;SDS011;42455;51.660;5.824;2023-12-20T07:20:21;12.0;;;4.0;;
45382;SDS011;42455;51.660;5.824;2023-12-20T07:25:27;14.0;;;4.0;;
45382;SDS011;42455;51.660;5.824;2023-12-20T07:30:33;13.0;;;4.0;;
45382;SDS011;42455;51.660;5.824;2023-12-20T07:35:39;14.0;;;4.0;;
45382;SDS011;42455;51.660;5.824;2023-12-20T07:40:45;15.5;;;5.0;;
45382;SDS011;42455;51.660;5.824;2023-12-20T07:45:52;11.0;;;4.0;;
45382;SDS011;42455;51.660;5.824;2023-12-20T07:50:58;16.0;;;5.0;;
45382;SDS011;42455;51.660;5.824;2023-12-20T07:56:13;14.0;;;5.0;;
45382;SDS011;42455;51.660;5.824;2023-12-20T08:06:16;14.0;;;5.0;;
45382;SDS011;42455;51.660;5.824;2023-12-20T08:11:23;15.0;;;5.0;;
45382;SDS011;42455;51.660;5.824;2023-12-20T08:16:29;12.5;;;4.0;;
45382;SDS011;42455;51.660;5.824;2023-12-20T08:21:35;11.0;;;4.0;;
45382;SDS011;42455;51.660;5.824;2023-12-20T08:26:41;13.0;;;4.0;;
45382;SDS011;42455;51.660;5.824;2023-12-20T08:31:47;11.5;;;4.0;;
45382;SDS011;42455;51.660;5.824;2023-12-20T08:36:54;13.0;;;4.0;;
45382;SDS011;42455;51.660;5.824;2023-12-20T08:42:00;12.0;;;4.0;;
45382;SDS011;42455;51.660;5.824;2023-12-20T08:47:06;12.0;;;4.0;;
45382;SDS011;42455;51.660;5.824;2023-12-20T08:52:12;14.0;;;4.0;;
45382;SDS011;42455;51.660;5.824;2023-12-20T08:57:19;15.0;;;4.0;;
45382;SDS011;42455;51.660;5.824;2023-12-20T09:02:25;11.0;;;4.0;;
45382;SDS011;42455;51.660;5.824;2023-12-20T09:07:31;11.0;;;3.0;;
45382;SDS011;42455;51.660;5.824;2023-12-20T09:12:37;12.0;;;4.0;;
45382;SDS011;42455;51.660;5.824;2023-12-20T09:17:43;14.0;;;4.0;;
45382;SDS011;42455;51.660;5.824;2023-12-20T09:22:50;12.0;;;4.0;;
45382;SDS011;42455;51.660;5.824;2023-12-20T09:27:56;12.5;;;4.0;;
45382;SDS011;42455;51.660;5.824;2023-12-20T09:33:02;12.0;;;4.0;;
45382;SDS011;42455;51.660;5.824;2023-12-20T09:38:08;14.0;;;4.0;;
45382;SDS011;42455;51.660;5.824;2023-12-20T09:43:15;12.5;;;4.0;;
45382;SDS011;42455;51.660;5.824;2023-12-20T09:48:21;12.0;;;4.0;;
45382;SDS011;42455;51.660;5.824;2023-12-20T09:53:27;12.0;;;4.0;;
45382;SDS011;42455;51.660;5.824;2023-12-20T09:58:35;11.0;;;4.0;;
45382;SDS011;42455;51.660;5.824;2023-12-20T10:03:39;10.0;;;3.0;;
45382;SDS011;42455;51.660;5.824;2023-12-20T10:08:45;11.0;;;4.0;;
45382;SDS011;42455;51.660;5.824;2023-12-20T10:13:52;12.0;;;4.0;;
45382;SDS011;42455;51.660;5.824;2023-12-20T10:18:58;12.0;;;3.0;;
45382;SDS011;42455;51.660;5.824;2023-12-20T10:24:04;13.0;;;4.0;;
45382;SDS011;42455;51.660;5.824;2023-12-20T10:29:10;12.0;;;3.0;;
45382;SDS011;42455;51.660;5.824;2023-12-20T10:34:16;11.0;;;3.0;;
45382;SDS011;42455;51.660;5.824;2023-12-20T10:39:22;10.5;;;3.0;;
45382;SDS011;42455;51.660;5.824;2023-12-20T10:44:28;12.0;;;4.0;;
45382;SDS011;42455;51.660;5.824;2023-12-20T10:49:37;12.0;;;3.0;;
45382;SDS011;42455;51.660;5.824;2023-12-20T10:54:40;11.0;;;4.0;;
45382;SDS011;42455;51.660;5.824;2023-12-20T10:59:46;13.0;;;3.0;;
45382;SDS011;42455;51.660;5.824;2023-12-20T11:05:01;14.0;;;4.0;;
45382;SDS011;42455;51.660;5.824;2023-12-20T11:12:10;13.0;;;4.0;;
45382;SDS011;42455;51.660;5.824;2023-12-20T11:15:21;14.0;;;3.5;;
45382;SDS011;42455;51.660;5.824;2023-12-20T11:20:11;9.5;;;3.0;;
45382;SDS011;42455;51.660;5.824;2023-12-20T11:25:18;10.0;;;3.0;;
45382;SDS011;42455;51.660;5.824;2023-12-20T11:30:24;13.0;;;3.0;;
45382;SDS011;42455;51.660;5.824;2023-12-20T11:35:30;12.5;;;3.0;;
45382;SDS011;42455;51.660;5.824;2023-12-20T11:40:36;12.0;;;3.0;;
45382;SDS011;42455;51.660;5.824;2023-12-20T11:45:49;12.0;;;3.0;;
45382;SDS011;42455;51.660;5.824;2023-12-20T11:50:49;10.0;;;3.0;;
45382;SDS011;42455;51.660;5.824;2023-12-20T11:55:55;11.0;;;3.0;;
45382;SDS011;42455;51.660;5.824;2023-12-20T12:01:01;13.0;;;3.0;;
45382;SDS011;42455;51.660;5.824;2023-12-20T12:06:07;12.0;;;4.0;;
45382;SDS011;42455;51.660;5.824;2023-12-20T12:11:13;12.0;;;3.0;;
45382;SDS011;42455;51.660;5.824;2023-12-20T12:16:20;13.0;;;4.0;;
45382;SDS011;42455;51.660;5.824;2023-12-20T12:21:26;11.0;;;3.0;;
45382;SDS011;42455;51.660;5.824;2023-12-20T12:26:32;10.0;;;3.0;;
45382;SDS011;42455;51.660;5.824;2023-12-20T12:31:38;11.5;;;3.0;;
45382;SDS011;42455;51.660;5.824;2023-12-20T12:36:44;11.0;;;4.0;;
45382;SDS011;42455;51.660;5.824;2023-12-20T12:41:51;11.0;;;4.0;;
45382;SDS011;42455;51.660;5.824;2023-12-20T12:46:57;13.0;;;4.0;;
45382;SDS011;42455;51.660;5.824;2023-12-20T12:52:03;12.5;;;3.0;;
45382;SDS011;42455;51.660;5.824;2023-12-20T12:57:09;11.0;;;4.0;;
45382;SDS011;42455;51.660;5.824;2023-12-20T13:02:15;12.0;;;4.0;;
45382;SDS011;42455;51.660;5.824;2023-12-20T13:07:22;11.0;;;4.0;;
45382;SDS011;42455;51.660;5.824;2023-12-20T13:12:28;14.0;;;4.0;;
45382;SDS011;42455;51.660;5.824;2023-12-20T13:17:34;11.0;;;4.0;;
45382;SDS011;42455;51.660;5.824;2023-12-20T13:22:40;11.0;;;3.0;;
45382;SDS011;42455;51.660;5.824;2023-12-20T13:27:47;13.0;;;3.0;;
45382;SDS011;42455;51.660;5.824;2023-12-20T13:32:53;11.5;;;4.0;;
45382;SDS011;42455;51.660;5.824;2023-12-20T13:37:59;12.0;;;4.0;;
45382;SDS011;42455;51.660;5.824;2023-12-20T13:43:05;14.0;;;4.0;;
45382;SDS011;42455;51.660;5.824;2023-12-20T13:48:11;12.0;;;4.0;;
45382;SDS011;42455;51.660;5.824;2023-12-20T13:53:18;12.0;;;4.0;;
45382;SDS011;42455;51.660;5.824;2023-12-20T13:58:24;9.0;;;4.0;;
45382;SDS011;42455;51.660;5.824;2023-12-20T14:03:30;11.0;;;4.0;;
45382;SDS011;42455;51.660;5.824;2023-12-20T14:08:36;10.0;;;4.0;;
45382;SDS011;42455;51.660;5.824;2023-12-20T14:13:42;11.0;;;4.0;;
45382;SDS011;42455;51.660;5.824;2023-12-20T14:18:49;12.0;;;4.0;;
45382;SDS011;42455;51.660;5.824;2023-12-20T14:23:55;14.0;;;4.0;;
45382;SDS011;42455;51.660;5.824;2023-12-20T14:29:01;14.0;;;4.0;;
45382;SDS011;42455;51.660;5.824;2023-12-20T14:34:07;15.0;;;5.0;;
45382;SDS011;42455;51.660;5.824;2023-12-20T14:39:13;10.5;;;4.0;;
45382;SDS011;42455;51.660;5.824;2023-12-20T14:44:20;13.0;;;4.0;;
45382;SDS011;42455;51.660;5.824;2023-12-20T14:49:26;15.0;;;5.0;;
45382;SDS011;42455;51.660;5.824;2023-12-20T14:54:32;11.5;;;4.0;;
45382;SDS011;42455;51.660;5.824;2023-12-20T14:59:38;11.0;;;4.0;;
45382;SDS011;42455;51.660;5.824;2023-12-20T15:04:45;11.0;;;4.0;;
45382;SDS011;42455;51.660;5.824;2023-12-20T15:09:51;12.0;;;4.0;;
45382;SDS011;42455;51.660;5.824;2023-12-20T15:14:57;11.0;;;4.0;;
45382;SDS011;42455;51.660;5.824;2023-12-20T15:20:03;11.0;;;4.0;;
45382;SDS011;42455;51.660;5.824;2023-12-20T15:25:10;12.0;;;4.0;;
45382;SDS011;42455;51.660;5.824;2023-12-20T15:30:16;12.5;;;4.0;;
45382;SDS011;42455;51.660;5.824;2023-12-20T15:35:22;11.0;;;4.0;;
45382;SDS011;42455;51.660;5.824;2023-12-20T15:40:28;10.0;;;5.0;;
45382;SDS011;42455;51.660;5.824;2023-12-20T15:45:34;11.0;;;5.0;;
45382;SDS011;42455;51.660;5.824;2023-12-20T15:50:40;9.5;;;5.0;;
45382;SDS011;42455;51.660;5.824;2023-12-20T15:55:47;16.0;;;6.0;;
45382;SDS011;42455;51.660;5.824;2023-12-20T16:00:53;15.0;;;5.0;;
45382;SDS011;42455;51.660;5.824;2023-12-20T16:05:58;12.0;;;5.0;;
45382;SDS011;42455;51.660;5.824;2023-12-20T16:11:04;12.5;;;5.0;;
45382;SDS011;42455;51.660;5.824;2023-12-20T16:16:10;11.0;;;4.0;;
45382;SDS011;42455;51.660;5.824;2023-12-20T16:21:17;12.0;;;5.0;;
45382;SDS011;42455;51.660;5.824;2023-12-20T16:26:23;12.0;;;5.0;;
45382;SDS011;42455;51.660;5.824;2023-12-20T16:31:29;12.0;;;5.0;;
45382;SDS011;42455;51.660;5.824;2023-12-20T16:36:52;13.0;;;5.0;;
45382;SDS011;42455;51.660;5.824;2023-12-20T16:41:41;13.0;;;5.0;;
45382;SDS011;42455;51.660;5.824;2023-12-20T16:51:54;11.0;;;5.0;;
45382;SDS011;42455;51.660;5.824;2023-12-20T16:57:00;13.0;;;5.0;;
45382;SDS011;42455;51.660;5.824;2023-12-20T17:02:06;11.0;;;5.0;;
45382;SDS011;42455;51.660;5.824;2023-12-20T17:07:12;11.0;;;5.0;;
45382;SDS011;42455;51.660;5.824;2023-12-20T17:12:19;13.0;;;5.0;;
45382;SDS011;42455;51.660;5.824;2023-12-20T17:17:25;12.0;;;6.0;;
45382;SDS011;42455;51.660;5.824;2023-12-20T17:22:31;13.0;;;6.0;;
45382;SDS011;42455;51.660;5.824;2023-12-20T17:27:37;11.0;;;6.0;;
45382;SDS011;42455;51.660;5.824;2023-12-20T17:32:44;14.0;;;6.0;;
45382;SDS011;42455;51.660;5.824;2023-12-20T17:37:50;11.5;;;6.0;;
45382;SDS011;42455;51.660;5.824;2023-12-20T17:42:56;14.0;;;7.0;;
45382;SDS011;42455;51.660;5.824;2023-12-20T17:48:02;12.5;;;8.0;;
45382;SDS011;42455;51.660;5.824;2023-12-20T17:53:09;12.0;;;7.0;;
45382;SDS011;42455;51.660;5.824;2023-12-20T17:58:15;11.0;;;7.0;;
45382;SDS011;42455;51.660;5.824;2023-12-20T18:03:21;12.0;;;7.0;;
45382;SDS011;42455;51.660;5.824;2023-12-20T18:08:27;12.0;;;7.0;;
45382;SDS011;42455;51.660;5.824;2023-12-20T18:13:33;12.0;;;8.0;;
45382;SDS011;42455;51.660;5.824;2023-12-20T18:18:39;14.0;;;9.0;;
45382;SDS011;42455;51.660;5.824;2023-12-20T18:28:52;15.0;;;11.0;;
45382;SDS011;42455;51.660;5.824;2023-12-20T18:33:58;16.0;;;11.0;;
45382;SDS011;42455;51.660;5.824;2023-12-20T18:39:04;16.0;;;11.0;;
45382;SDS011;42455;51.660;5.824;2023-12-20T18:44:11;19.0;;;12.0;;
45382;SDS011;42455;51.660;5.824;2023-12-20T18:49:17;15.0;;;12.0;;
45382;SDS011;42455;51.660;5.824;2023-12-20T18:54:23;17.0;;;11.0;;
45382;SDS011;42455;51.660;5.824;2023-12-20T18:59:29;15.5;;;11.0;;
45382;SDS011;42455;51.660;5.824;2023-12-20T19:04:35;15.0;;;11.0;;
45382;SDS011;42455;51.660;5.824;2023-12-20T19:09:41;14.0;;;11.0;;
45382;SDS011;42455;51.660;5.824;2023-12-20T19:14:48;14.0;;;11.0;;
45382;SDS011;42455;51.660;5.824;2023-12-20T19:19:54;16.0;;;11.0;;
45382;SDS011;42455;51.660;5.824;2023-12-20T19:25:00;15.0;;;11.0;;
45382;SDS011;42455;51.660;5.824;2023-12-20T19:30:07;13.0;;;10.0;;
45382;SDS011;42455;51.660;5.824;2023-12-20T19:35:13;13.0;;;10.0;;
45382;SDS011;42455;51.660;5.824;2023-12-20T19:40:19;13.0;;;10.0;;
45382;SDS011;42455;51.660;5.824;2023-12-20T19:45:25;12.0;;;9.0;;
45382;SDS011;42455;51.660;5.824;2023-12-20T19:50:31;11.0;;;9.0;;
45382;SDS011;42455;51.660;5.824;2023-12-20T19:55:37;11.0;;;9.0;;
45382;SDS011;42455;51.660;5.824;2023-12-20T20:00:44;15.0;;;9.0;;
45382;SDS011;42455;51.660;5.824;2023-12-20T20:05:50;11.0;;;9.5;;
45382;SDS011;42455;51.660;5.824;2023-12-20T20:10:56;12.0;;;9.0;;
45382;SDS011;42455;51.660;5.824;2023-12-20T20:16:02;12.0;;;9.0;;
45382;SDS011;42455;51.660;5.824;2023-12-20T20:21:08;10.0;;;8.0;;
45382;SDS011;42455;51.660;5.824;2023-12-20T20:26:15;10.0;;;8.0;;
45382;SDS011;42455;51.660;5.824;2023-12-20T20:31:21;10.5;;;8.0;;
45382;SDS011;42455;51.660;5.824;2023-12-20T20:36:27;8.0;;;7.0;;
45382;SDS011;42455;51.660;5.824;2023-12-20T20:41:33;8.0;;;7.0;;
45382;SDS011;42455;51.660;5.824;2023-12-20T20:46:39;9.0;;;7.0;;
45382;SDS011;42455;51.660;5.824;2023-12-20T20:51:46;10.0;;;7.0;;
45382;SDS011;42455;51.660;5.824;2023-12-20T20:56:52;10.0;;;7.0;;
45382;SDS011;42455;51.660;5.824;2023-12-20T21:01:58;10.0;;;7.0;;
45382;SDS011;42455;51.660;5.824;2023-12-20T21:07:04;10.0;;;7.0;;
45382;SDS011;42455;51.660;5.824;2023-12-20T21:12:10;9.5;;;7.0;;
45382;SDS011;42455;51.660;5.824;2023-12-20T21:17:17;8.0;;;7.0;;
45382;SDS011;42455;51.660;5.824;2023-12-20T21:22:23;9.0;;;7.0;;
45382;SDS011;42455;51.660;5.824;2023-12-20T21:27:29;11.0;;;7.0;;
45382;SDS011;42455;51.660;5.824;2023-12-20T21:32:35;9.5;;;7.0;;
45382;SDS011;42455;51.660;5.824;2023-12-20T21:37:41;11.0;;;8.0;;
45382;SDS011;42455;51.660;5.824;2023-12-20T21:42:47;11.0;;;8.0;;
45382;SDS011;42455;51.660;5.824;2023-12-20T21:47:53;10.0;;;8.0;;
45382;SDS011;42455;51.660;5.824;2023-12-20T21:52:59;10.5;;;8.0;;
45382;SDS011;42455;51.660;5.824;2023-12-20T21:58:05;10.0;;;8.0;;
45382;SDS011;42455;51.660;5.824;2023-12-20T22:03:12;10.0;;;9.0;;
45382;SDS011;42455;51.660;5.824;2023-12-20T22:08:17;10.0;;;9.0;;
45382;SDS011;42455;51.660;5.824;2023-12-20T22:13:23;11.5;;;9.0;;
45382;SDS011;42455;51.660;5.824;2023-12-20T22:23:35;10.0;;;9.0;;
45382;SDS011;42455;51.660;5.824;2023-12-20T22:28:42;10.0;;;9.0;;
45382;SDS011;42455;51.660;5.824;2023-12-20T22:33:48;9.0;;;8.0;;
45382;SDS011;42455;51.660;5.824;2023-12-20T22:38:54;9.0;;;8.0;;
45382;SDS011;42455;51.660;5.824;2023-12-20T22:44:00;9.0;;;7.0;;
45382;SDS011;42455;51.660;5.824;2023-12-20T22:49:06;10.0;;;8.0;;
45382;SDS011;42455;51.660;5.824;2023-12-20T22:54:13;10.0;;;7.0;;
45382;SDS011;42455;51.660;5.824;2023-12-20T22:59:19;8.0;;;7.0;;
45382;SDS011;42455;51.660;5.824;2023-12-20T23:04:25;8.0;;;7.0;;
45382;SDS011;42455;51.660;5.824;2023-12-20T23:09:31;10.5;;;8.0;;
45382;SDS011;42455;51.660;5.824;2023-12-20T23:14:37;11.0;;;8.0;;
45382;SDS011;42455;51.660;5.824;2023-12-20T23:19:44;9.0;;;8.0;;
45382;SDS011;42455;51.660;5.824;2023-12-20T23:24:50;9.0;;;7.0;;
45382;SDS011;42455;51.660;5.824;2023-12-20T23:29:56;10.0;;;7.0;;
45382;SDS011;42455;51.660;5.824;2023-12-20T23:35:02;10.0;;;8.0;;
45382;SDS011;42455;51.660;5.824;2023-12-20T23:40:09;9.0;;;7.0;;
45382;SDS011;42455;51.660;5.824;2023-12-20T23:45:15;10.0;;;7.0;;
45382;SDS011;42455;51.660;5.824;2023-12-20T23:50:21;9.0;;;6.5;;
45382;SDS011;42455;51.660;5.824;2023-12-20T23:55:27;9.0;;;6.0;;
